Phoenix, Arizona
Traffic Map
Current Weather Conditions
Phoenix, Arizona
Few Clouds
Few Clouds
36°
Feels Like: 37°
Wind Chill: 36° Ceiling: Unl
Heat Index: 37° Visibility: 10mi
Dew Point: 17° Wind: 5mph
Humidity: 31% Direction: ° ()
Pressure: 30in Gusts: 0mph
Raw Report DataKPHX 271851Z VRB04KT 10SM FEW075 FEW250 36/17 A3000 RMK AO2 SLP138 T03610167
Traffic Incident Summary
Active as of:
Severity:
Category:
InformationThere was an issue retrieving the traffic information for this location. Please try a different location or try again shortly.
Advertisements
Track Severe Weather on mobile